Time;durP1;ratioP1;P1;durP2;ratioP2;P2;SDS_P1;SDS_P2;PMS_P1;PMS_P2;Temp;Humidity;BMP_temperature;BMP_pressure;BME280_temperature;BME280_humidity;BME280_pressure;Samples;Min_cycle;Max_cycle;Signal;HPM_P1;HPM_P2
2022/09/03 00:00:09;;;;;;;37.22;21.48;;;19.20;99.90;;;;;;6340498;22;20055;-92
2022/09/03 00:02:35;;;;;;;37.15;20.58;;;;;;;;;;6340152;22;20350;-90
2022/09/03 00:05:17;;;;;;;35.33;19.60;;;19.20;99.90;;;;;;6340371;22;20014;-89
2022/09/03 00:07:43;;;;;;;44.83;22.52;;;;;;;;;;6340225;22;20083;-91
2022/09/03 00:10:44;;;;;;;27.33;19.05;;;19.20;99.90;;;;;;6369089;22;19994;-89
2022/09/03 00:13:22;;;;;;;44.22;19.42;;;19.10;99.90;;;;;;6341323;22;20017;-90
2022/09/03 00:15:52;;;;;;;36.55;20.35;;;19.10;99.90;;;;;;6340338;22;20003;-94
2022/09/03 00:18:23;;;;;;;28.70;18.92;;;19.00;99.90;;;;;;6340590;22;20006;-93
2022/09/03 00:20:58;;;;;;;31.13;19.25;;;19.10;99.90;;;;;;6368485;22;19998;-90
2022/09/03 00:23:28;;;;;;;30.77;17.90;;;19.10;99.90;;;;;;6339818;22;20006;-89
2022/09/03 00:26:25;;;;;;;25.67;17.63;;;19.10;99.90;;;;;;6340055;22;20002;-92
2022/09/03 00:29:12;;;;;;;30.48;17.80;;;19.00;99.90;;;;;;6367926;22;20003;-91
2022/09/03 00:31:42;;;;;;;35.88;17.77;;;19.10;99.90;;;;;;6340862;22;20089;-90
2022/09/03 00:34:19;;;;;;;30.52;18.05;;;18.50;99.90;;;;;;6341694;22;20002;-93
2022/09/03 00:36:45;;;;;;;33.00;17.10;;;;;;;;;;6339761;22;20002;-92
2022/09/03 00:39:19;;;;;;;32.00;16.98;;;19.10;99.90;;;;;;6340751;22;20056;-92
2022/09/03 00:41:59;;;;;;;31.38;17.98;;;19.10;99.90;;;;;;6339402;22;20346;-89
2022/09/03 00:44:43;;;;;;;31.73;17.38;;;19.10;99.90;;;;;;6366489;22;19998;-90
2022/09/03 00:47:23;;;;;;;30.63;18.67;;;19.20;99.90;;;;;;6340502;22;20015;-91
2022/09/03 00:50:10;;;;;;;33.13;17.40;;;19.20;99.90;;;;;;6339836;22;20002;-89
2022/09/03 00:52:51;;;;;;;26.13;17.85;;;19.40;99.90;;;;;;6339343;22;20007;-90
2022/09/03 00:55:46;;;;;;;31.42;18.00;;;19.20;99.90;;;;;;6340204;22;20006;-89
2022/09/03 00:58:33;;;;;;;28.75;18.02;;;20.10;99.90;;;;;;6341316;22;20002;-89
2022/09/03 01:01:04;;;;;;;30.87;19.10;;;19.20;99.90;;;;;;6340208;22;20465;-90
2022/09/03 01:03:57;;;;;;;38.72;19.50;;;19.00;99.90;;;;;;6340068;22;20488;-90
2022/09/03 01:06:48;;;;;;;35.50;18.40;;;19.10;99.90;;;;;;6339377;22;20072;-89
2022/09/03 01:09:41;;;;;;;33.90;18.23;;;19.40;99.90;;;;;;6367948;22;20435;-92
2022/09/03 01:12:32;;;;;;;36.03;21.00;;;19.00;99.90;;;;;;6368056;22;20009;-89
2022/09/03 01:15:16;;;;;;;36.10;20.17;;;19.10;99.90;;;;;;6339935;22;20006;-90
2022/09/03 01:18:00;;;;;;;41.13;22.02;;;19.10;99.90;;;;;;6340688;22;20026;-90
2022/09/03 01:20:32;;;;;;;38.45;19.80;;;20.20;99.90;;;;;;6339958;22;20003;-90
2022/09/03 01:23:23;;;;;;;33.60;20.60;;;19.00;99.90;;;;;;6340196;22;20081;-91
2022/09/03 01:26:07;;;;;;;36.05;20.85;;;19.20;99.90;;;;;;6339908;22;20037;-92
2022/09/03 01:29:06;;;;;;;40.95;21.85;;;18.90;99.90;;;;;;6339177;22;20044;-92
2022/09/03 01:31:57;;;;;;;36.08;21.35;;;18.90;99.90;;;;;;6338715;22;20339;-92
2022/09/03 01:34:34;;;;;;;36.47;20.60;;;18.90;99.90;;;;;;6338489;22;20093;-90
2022/09/03 01:37:02;;;;;;;40.43;20.67;;;18.80;99.90;;;;;;6339627;22;20002;-90
2022/09/03 01:40:04;;;;;;;44.35;21.17;;;18.90;99.90;;;;;;6339501;22;19999;-91
2022/09/03 01:42:59;;;;;;;33.10;20.55;;;18.90;99.90;;;;;;6339660;22;20387;-91
2022/09/03 01:45:53;;;;;;;34.03;20.80;;;18.90;99.90;;;;;;6340001;22;19998;-92
2022/09/03 01:48:38;;;;;;;33.80;21.08;;;19.10;99.90;;;;;;6368204;22;20011;-91
2022/09/03 01:51:18;;;;;;;31.65;20.77;;;19.00;99.90;;;;;;6339087;22;20007;-90
2022/09/03 01:53:44;;;;;;;35.80;20.75;;;19.00;99.90;;;;;;6339325;22;20009;-89
2022/09/03 01:56:36;;;;;;;33.20;21.15;;;19.10;99.90;;;;;;6339222;22;20030;-92
2022/09/03 01:59:08;;;;;;;39.10;21.50;;;19.10;99.90;;;;;;6339583;22;20004;-91
2022/09/03 02:01:52;;;;;;;35.50;20.25;;;19.10;99.90;;;;;;6366680;22;20002;-90
2022/09/03 02:04:23;;;;;;;34.60;21.63;;;19.10;99.90;;;;;;6339180;22;20033;-90
2022/09/03 02:06:50;;;;;;;31.15;19.75;;;19.00;99.90;;;;;;6340606;22;20010;-91
2022/09/03 02:09:17;;;;;;;30.00;19.67;;;18.90;99.90;;;;;;6364239;22;20010;-91
2022/09/03 02:11:49;;;;;;;37.80;19.70;;;18.80;99.90;;;;;;6395874;22;19982;-91
2022/09/03 02:14:15;;;;;;;35.53;21.52;;;;;;;;;;6369203;22;19994;-91
2022/09/03 02:16:43;;;;;;;36.67;21.10;;;;;;;;;;6392295;22;20006;-90
2022/09/03 02:19:13;;;;;;;35.13;21.15;;;18.80;99.90;;;;;;6355687;22;20522;-93
2022/09/03 02:21:46;;;;;;;38.35;22.10;;;18.80;99.90;;;;;;6339605;22;20006;-93
2022/09/03 02:24:12;;;;;;;51.80;22.33;;;18.70;99.90;;;;;;6339502;22;20080;-91
2022/09/03 02:26:38;;;;;;;36.75;21.85;;;;;;;;;;6339632;22;20033;-90
2022/09/03 02:29:04;;;;;;;40.42;22.02;;;;;;;;;;6339750;22;20311;-90
2022/09/03 02:31:30;;;;;;;41.78;23.60;;;18.80;99.90;;;;;;6339501;22;19998;-93
2022/09/03 02:33:56;;;;;;;42.58;25.67;;;18.80;99.90;;;;;;6340219;22;20350;-90
2022/09/03 02:36:37;;;;;;;43.22;25.63;;;18.80;99.90;;;;;;6339361;22;20009;-90
2022/09/03 02:39:03;;;;;;;47.92;25.88;;;;;;;;;;6338835;22;20037;-90
2022/09/03 02:41:30;;;;;;;40.63;25.10;;;;;;;;;;6366456;22;20006;-91
2022/09/03 02:44:30;;;;;;;44.35;25.55;;;18.80;99.90;;;;;;6338850;22;20081;-90
2022/09/03 02:47:02;;;;;;;46.17;25.48;;;18.90;99.90;;;;;;6257083;22;20006;-93
2022/09/03 02:49:29;;;;;;;43.72;24.92;;;18.80;99.90;;;;;;6339048;22;20007;-91
2022/09/03 02:52:08;;;;;;;44.58;25.35;;;18.90;99.90;;;;;;6339873;22;19998;-91
2022/09/03 02:54:38;;;;;;;48.80;28.67;;;;;;;;;;6339053;22;20327;-93
2022/09/03 02:57:04;;;;;;;47.70;27.90;;;;;;;;;;6338935;22;20060;-90
2022/09/03 02:59:31;;;;;;;56.50;31.08;;;;;;;;;;6366451;22;20055;-90
2022/09/03 03:01:57;;;;;;;58.63;32.97;;;;;;;;;;6339150;22;20426;-90
2022/09/03 03:04:23;;;;;;;61.58;33.60;;;;;;;;;;6338693;22;20448;-91
2022/09/03 03:06:52;;;;;;;62.15;33.55;;;;;;;;;;6366746;22;20086;-90
2022/09/03 03:09:18;;;;;;;59.08;31.58;;;;;;;;;;6339438;22;19995;-90
2022/09/03 03:11:45;;;;;;;55.83;32.83;;;;;;;;;;6339633;22;20089;-89
2022/09/03 03:14:11;;;;;;;54.60;32.75;;;;;;;;;;6339527;22;19998;-92
2022/09/03 03:16:37;;;;;;;55.63;32.95;;;;;;;;;;6339112;22;20369;-91
2022/09/03 03:19:04;;;;;;;55.63;31.13;;;;;;;;;;6338972;22;20002;-90
2022/09/03 03:21:35;;;;;;;63.08;34.08;;;18.90;99.90;;;;;;6338760;22;20033;-94
2022/09/03 03:24:02;;;;;;;56.70;31.45;;;;;;;;;;6338588;22;20002;-91
2022/09/03 03:26:27;;;;;;;62.33;33.63;;;18.80;99.90;;;;;;6338401;22;20346;-91
2022/09/03 03:28:59;;;;;;;63.58;33.70;;;18.70;99.90;;;;;;6338835;22;20434;-90
2022/09/03 03:31:26;;;;;;;50.55;29.85;;;18.70;99.90;;;;;;6339574;22;20013;-91
2022/09/03 03:33:59;;;;;;;58.90;32.80;;;18.80;99.90;;;;;;6338549;22;20074;-90
2022/09/03 03:36:27;;;;;;;57.67;31.45;;;18.90;99.90;;;;;;6338439;22;20002;-91
2022/09/03 03:38:55;;;;;;;51.95;31.05;;;18.90;99.90;;;;;;6339285;22;20010;-91
2022/09/03 03:41:38;;;;;;;60.63;31.43;;;18.90;99.90;;;;;;6338993;22;20007;-90
2022/09/03 03:44:06;;;;;;;53.95;30.83;;;18.90;99.90;;;;;;6339275;22;20089;-91
2022/09/03 03:46:47;;;;;;;55.35;31.10;;;19.00;99.90;;;;;;6338698;22;20014;-92
2022/09/03 03:49:13;;;;;;;51.40;29.23;;;;;;;;;;6366400;22;20005;-91
2022/09/03 03:51:41;;;;;;;54.70;30.90;;;18.90;99.90;;;;;;6338598;22;20010;-90
2022/09/03 03:54:09;;;;;;;69.72;30.75;;;18.90;99.90;;;;;;6366711;22;20073;-91
2022/09/03 04:04:06;;;;;;;;;;;;;;;;;;;;;
2022/09/03 04:10:19;;;;;;;39.42;18.98;;;18.80;99.90;;;;;;6210106;23;20055;-91
2022/09/03 04:12:50;;;;;;;36.15;18.77;;;;;;;;;;6278118;22;20006;-91
2022/09/03 04:16:04;;;;;;;;;;;;;;;;;;;;;
2022/09/03 04:21:28;;;;;;;50.92;22.60;;;18.90;99.90;;;;;;6316919;22;20002;-91
2022/09/03 04:23:54;;;;;;;47.85;24.35;;;;;;;;;;6341126;22;20502;-90
2022/09/03 04:26:28;;;;;;;49.50;25.45;;;18.90;99.90;;;;;;6343076;22;20002;-90
2022/09/03 04:28:54;;;;;;;56.38;26.98;;;19.50;99.90;;;;;;6341354;22;20405;-90
2022/09/03 04:31:23;;;;;;;60.53;29.92;;;18.90;99.90;;;;;;6342830;22;19999;-90
2022/09/03 04:33:50;;;;;;;107.38;32.30;;;;;;;;;;6370411;22;19998;-91
2022/09/03 04:36:22;;;;;;;85.82;34.13;;;18.70;99.90;;;;;;6340454;22;20026;-90
2022/09/03 04:39:05;;;;;;;92.45;37.35;;;18.70;99.90;;;;;;6341592;22;20002;-91
2022/09/03 04:41:53;;;;;;;97.85;38.80;;;18.40;99.90;;;;;;6342976;22;20071;-90
2022/09/03 04:44:48;;;;;;;;;;;18.40;99.90;;;;;;6346905;22;20034;-93
2022/09/03 04:48:52;;;;;;;89.20;39.03;;;18.50;99.90;;;;;;6331216;22;19906;-91
2022/09/03 05:02:11;;;;;;;;;;;;;;;;;;;;;
2022/09/03 05:18:51;;;;;;;39.97;15.35;;;16.80;99.90;;;;;;5919581;24;20066;-90
2022/09/03 05:21:47;;;;;;;;;;;;;;;;;;;;;
2022/09/03 05:25:13;;;;;;;;;;;;;;;;;;;;;
2022/09/03 05:35:23;;;;;;;;;;;;;;;;;;;;;
2022/09/03 05:38:26;;;;;;;;;;;;;;;;;;;;;
2022/09/03 05:41:04;;;;;;;130.13;55.15;;;17.60;99.90;;;;;;6363985;22;20416;-90
2022/09/03 05:44:11;;;;;;;133.33;59.23;;;17.80;99.90;;;;;;6340802;22;20357;-90
2022/09/03 05:52:56;;;;;;;164.35;67.70;;;18.10;99.90;;;;;;6351981;22;20002;-89
2022/09/03 05:55:34;;;;;;;;;;;;;;;;;;;;;
2022/09/03 05:58:03;;;;;;;177.15;75.13;;;;;;;;;;6367291;22;20090;-91
2022/09/03 06:00:42;;;;;;;;;;;;;;;;;;;;;
2022/09/03 06:03:08;;;;;;;183.82;74.85;;;18.00;99.90;;;;;;6368406;22;20408;-89
2022/09/03 06:05:38;;;;;;;178.82;71.88;;;17.80;99.90;;;;;;6372169;22;20001;-92
2022/09/03 06:08:04;;;;;;;153.20;68.05;;;;;;;;;;6343276;22;20010;-93
2022/09/03 06:14:07;;;;;;;163.70;64.85;;;17.40;99.90;;;;;;6178306;23;20008;-91
2022/09/03 06:16:54;;;;;;;151.57;63.45;;;17.40;99.90;;;;;;6354380;22;20480;-92
2022/09/03 06:19:24;;;;;;;156.57;67.13;;;17.40;99.90;;;;;;6342463;22;20002;-89
2022/09/03 06:22:37;;;;;;;;;;;;;;;;;;;;;
2022/09/03 06:25:18;;;;;;;;;;;;;;;;;;;;;
2022/09/03 06:39:26;;;;;;;160.02;63.13;;;17.50;99.90;;;;;;5857678;24;20071;-92
2022/09/03 06:42:10;;;;;;;198.20;75.18;;;17.30;99.90;;;;;;5927253;23;20016;-89
2022/09/03 06:44:36;;;;;;;226.88;78.38;;;;;;;;;;6061390;23;20009;-92
2022/09/03 06:47:02;;;;;;;210.65;77.45;;;;;;;;;;6062141;23;20112;-91
2022/09/03 06:49:30;;;;;;;238.82;85.35;;;;;;;;;;6123673;23;20012;-91
2022/09/03 06:55:59;;;;;;;256.23;88.72;;;17.20;99.90;;;;;;6062578;23;20003;-91
2022/09/03 07:24:03;;;;;;;282.67;95.13;;;18.60;99.90;;;;;;5905270;24;20027;-94
2022/09/03 07:27:07;;;;;;;283.27;95.68;;;17.50;99.90;;;;;;5928697;24;20094;-92
2022/09/03 07:36:26;;;;;;;302.42;98.45;;;17.70;99.90;;;;;;6007227;23;19992;-93
2022/09/03 07:45:34;;;;;;;286.95;98.95;;;17.90;99.90;;;;;;6175337;23;20011;-91
2022/09/03 07:51:47;;;;;;;299.25;97.70;;;17.90;99.90;;;;;;6107008;23;20012;-93
2022/09/03 07:54:26;;;;;;;308.83;97.55;;;18.10;99.90;;;;;;6188465;23;20024;-92
2022/09/03 07:56:55;;;;;;;294.08;96.78;;;;;;;;;;6186126;23;20005;-91
2022/09/03 08:00:32;;;;;;;;;;;;;;;;;;;;;
2022/09/03 08:07:10;;;;;;;267.60;88.47;;;18.00;99.90;;;;;;6182650;23;20362;-94
2022/09/03 08:14:01;;;;;;;;;;;;;;;;;;;;;
2022/09/03 08:17:13;;;;;;;;;;;;;;;;;;;;;
2022/09/03 08:23:47;;;;;;;;;;;;;;;;;;;;;
2022/09/03 08:26:15;;;;;;;253.52;89.07;;;18.40;99.90;;;;;;6158094;23;20152;-94
2022/09/03 08:28:44;;;;;;;250.68;89.78;;;18.40;99.90;;;;;;6246612;23;20008;-93
2022/09/03 10:03:28;;;;;;;119.38;49.72;;;19.80;99.90;;;;;;6280755;22;1378956;-93
2022/09/03 18:10:18;;;;;;;;;;;;;;;;;;;;;
2022/09/03 20:15:13;;;;;;;;;;;;;;;;;;;;;
2022/09/03 20:18:13;;;;;;;;;;;;;;;;;;;;;
2022/09/03 20:24:44;;;;;;;;;;;;;;;;;;;;;
2022/09/03 20:28:24;;;;;;;;;;;;;;;;;;;;;
2022/09/03 20:34:28;;;;;;;;;;;;;;;;;;;;;
2022/09/03 20:50:57;;;;;;;;;;;;;;;;;;;;;
2022/09/03 21:03:45;;;;;;;;;;;;;;;;;;;;;
2022/09/03 21:06:58;;;;;;;;;;;;;;;;;;;;;
2022/09/03 21:10:20;;;;;;;;;;;;;;;;;;;;;
2022/09/03 21:24:05;;;;;;;;;;;;;;;;;;;;;
2022/09/03 21:34:11;;;;;;;;;;;;;;;;;;;;;
2022/09/03 22:10:45;;;;;;;16.02;5.55;;;16.30;99.90;;;;;;5912485;24;20013;-92
2022/09/03 22:21:01;;;;;;;;;;;;;;;;;;;;;
2022/09/03 22:41:49;;;;;;;;;;;;;;;;;;;;;
2022/09/03 22:44:42;;;;;;;;;;;;;;;;;;;;;
2022/09/03 23:15:07;;;;;;;;;;;;;;;;;;;;;
2022/09/03 23:18:56;;;;;;;;;;;;;;;;;;;;;
2022/09/03 23:29:26;;;;;;;;;;;;;;;;;;;;;
